Time;durP1;ratioP1;P1;durP2;ratioP2;P2;SDS_P1;SDS_P2;PMS_P1;PMS_P2;Temp;Humidity;BMP_temperature;BMP_pressure;BME280_temperature;BME280_humidity;BME280_pressure;Samples;Min_cycle;Max_cycle;Signal;HPM_P1;HPM_P2
2023/09/04 00:02:23;;;;;;;2.30;1.90;;;;;;;14.50;71.71;100807.39;220447;1256;141331;-72
2023/09/04 00:07:26;;;;;;;9.30;3.20;;;;;;;14.48;71.78;100809.23;219357;1256;140252;-72
2023/09/04 00:12:30;;;;;;;2.80;1.40;;;;;;;14.45;72.03;100816.79;217726;1256;141312;-71
2023/09/04 00:17:35;;;;;;;3.10;1.90;;;;;;;14.45;72.35;100828.58;218761;1256;140614;-71
2023/09/04 00:22:40;;;;;;;3.30;2.00;;;;;;;14.46;72.62;100837.98;218158;1257;140902;-71
2023/09/04 00:27:44;;;;;;;2.90;2.70;;;;;;;14.48;72.76;100840.94;219345;1256;140858;-71
2023/09/04 00:32:47;;;;;;;6.50;2.70;;;;;;;14.46;72.94;100838.37;218010;1257;139830;-71
2023/09/04 00:37:51;;;;;;;5.10;2.80;;;;;;;14.46;72.90;100838.52;217739;1257;140136;-71
2023/09/04 00:42:58;;;;;;;3.00;2.70;;;;;;;14.45;72.88;100839.85;218681;1257;140644;-72
2023/09/04 00:48:03;;;;;;;3.70;2.10;;;;;;;14.45;73.03;100844.13;218177;1256;140373;-71
2023/09/04 00:53:08;;;;;;;2.40;2.20;;;;;;;14.45;73.18;100840.08;218705;1256;140096;-72
2023/09/04 00:58:13;;;;;;;2.10;1.90;;;;;;;14.49;73.25;100835.96;217808;1260;139858;-71
2023/09/04 01:03:17;;;;;;;5.20;2.80;;;;;;;14.50;73.51;100835.30;217830;1256;141254;-72
2023/09/04 01:08:23;;;;;;;3.60;2.60;;;;;;;14.51;73.63;100833.75;218010;1257;140660;-74
2023/09/04 01:13:50;;;;;;;9.60;2.90;;;;;;;14.53;73.60;100829.77;217750;1256;140022;-73
2023/09/04 01:18:54;;;;;;;3.20;2.60;;;;;;;14.52;73.65;100824.11;217851;1256;140696;-74
2023/09/04 01:23:58;;;;;;;6.70;2.70;;;;;;;14.51;73.71;100813.36;217753;1258;140669;-72
2023/09/04 01:29:16;;;;;;;4.90;3.20;;;;;;;14.50;73.79;100805.23;218621;1258;141018;-70
2023/09/04 01:34:28;;;;;;;4.10;2.40;;;;;;;14.49;73.85;100812.73;218650;1257;139942;-70
2023/09/04 01:39:33;;;;;;;6.50;2.90;;;;;;;14.49;73.90;100827.71;218553;1258;140052;-71
2023/09/04 01:44:37;;;;;;;3.90;2.90;;;;;;;14.49;73.90;100833.23;219865;1256;141479;-70
2023/09/04 01:49:42;;;;;;;3.10;2.30;;;;;;;14.47;73.91;100839.21;218012;1256;140036;-70
2023/09/04 01:54:45;;;;;;;3.70;2.60;;;;;;;14.47;73.95;100838.34;219645;1256;140757;-71
2023/09/04 01:59:49;;;;;;;5.20;1.90;;;;;;;14.46;73.88;100831.60;220428;1256;140570;-70
2023/09/04 02:04:52;;;;;;;3.30;2.70;;;;;;;14.44;73.94;100840.30;217834;1257;140661;-70
2023/09/04 02:09:55;;;;;;;7.90;3.00;;;;;;;14.42;74.02;100850.02;219856;1256;140373;-69
2023/09/04 02:14:58;;;;;;;3.90;3.00;;;;;;;14.40;74.00;100853.80;218203;1257;140281;-69
2023/09/04 02:20:04;;;;;;;5.10;2.20;;;;;;;14.37;74.26;100859.21;217956;1256;140815;-71
2023/09/04 02:25:08;;;;;;;;;;;;;;;14.36;74.36;100858.34;219237;1255;140271;-71
2023/09/04 02:30:10;;;;;;;4.30;2.40;;;;;;;14.30;74.59;100867.27;219447;1256;126862;-68
2023/09/04 02:35:13;;;;;;;2.50;2.20;;;;;;;14.30;74.70;100856.25;217990;1256;141008;-73
2023/09/04 02:40:16;;;;;;;2.60;2.20;;;;;;;14.28;74.80;100853.60;218619;1256;140064;-71
2023/09/04 02:45:20;;;;;;;6.60;2.70;;;;;;;14.26;75.16;100853.75;217591;1257;140347;-72
2023/09/04 02:50:24;;;;;;;3.20;2.60;;;;;;;14.22;75.15;100867.59;218614;1256;140513;-73
2023/09/04 02:55:28;;;;;;;6.10;2.70;;;;;;;14.12;75.27;100868.95;217577;1256;139858;-72
2023/09/04 03:00:31;;;;;;;4.70;3.20;;;;;;;14.08;75.63;100867.92;218287;1256;140167;-73
2023/09/04 03:05:34;;;;;;;3.20;2.20;;;;;;;14.05;75.96;100862.73;217879;1256;140427;-73
2023/09/04 03:10:37;;;;;;;2.30;2.10;;;;;;;14.00;75.96;100855.20;217578;1257;141587;-72
2023/09/04 03:15:40;;;;;;;3.40;2.50;;;;;;;13.92;76.00;100854.13;217810;1260;140252;-73
2023/09/04 03:20:43;;;;;;;6.20;3.00;;;;;;;13.85;76.36;100856.94;217655;1256;141162;-72
2023/09/04 03:25:46;;;;;;;2.50;2.20;;;;;;;13.83;76.77;100855.56;218920;1256;140836;-69
2023/09/04 03:30:48;;;;;;;2.70;2.00;;;;;;;13.76;76.77;100859.26;217728;1257;141089;-72
2023/09/04 03:35:50;;;;;;;2.90;2.40;;;;;;;13.68;76.97;100866.77;218732;1256;141748;-72
2023/09/04 03:40:54;;;;;;;2.70;2.50;;;;;;;13.60;76.81;100868.89;218178;1257;141723;-72
2023/09/04 03:45:57;;;;;;;3.30;2.50;;;;;;;13.57;77.13;100876.52;218515;1256;140557;-72
2023/09/04 03:51:02;;;;;;;4.00;2.50;;;;;;;13.50;77.11;100874.45;220326;1256;140852;-71
2023/09/04 03:56:06;;;;;;;12.10;2.70;;;;;;;13.42;76.99;100878.08;220019;1256;140152;-71
2023/09/04 04:01:08;;;;;;;2.40;2.10;;;;;;;13.41;77.29;100894.95;220401;1256;141061;-71
2023/09/04 04:06:14;;;;;;;3.40;2.80;;;;;;;13.42;77.46;100900.98;220350;1256;140908;-71
2023/09/04 04:11:21;;;;;;;3.40;2.50;;;;;;;13.41;77.52;100903.48;218808;1256;140381;-69
2023/09/04 04:16:24;;;;;;;2.50;2.40;;;;;;;13.35;77.52;100906.30;217624;1257;140220;-71
2023/09/04 04:21:27;;;;;;;4.10;3.00;;;;;;;13.39;78.04;100911.86;218298;1260;141644;-71
2023/09/04 04:26:30;;;;;;;6.40;3.20;;;;;;;13.40;78.08;100904.73;217815;1256;141767;-71
2023/09/04 04:31:33;;;;;;;6.60;3.10;;;;;;;13.44;78.50;100906.12;217755;1257;141184;-73
2023/09/04 04:36:35;;;;;;;3.80;2.60;;;;;;;13.52;78.62;100908.84;218336;1257;141214;-72
2023/09/04 04:41:38;;;;;;;4.00;2.60;;;;;;;13.58;78.46;100912.23;217694;1257;141740;-69
2023/09/04 04:46:40;;;;;;;5.50;2.90;;;;;;;13.62;78.26;100912.63;218417;1257;139977;-69
2023/09/04 04:51:44;;;;;;;4.10;3.70;;;;;;;13.61;78.43;100903.38;217718;1260;140178;-69
2023/09/04 04:56:48;;;;;;;35.50;5.70;;;;;;;13.63;78.81;100909.88;219218;1257;141002;-69
2023/09/04 05:01:51;;;;;;;3.90;3.50;;;;;;;13.69;78.88;100928.38;217688;1257;141776;-71
2023/09/04 05:06:55;;;;;;;3.60;2.80;;;;;;;13.83;79.16;100936.81;218530;1256;141983;-70
2023/09/04 05:11:58;;;;;;;4.70;3.30;;;;;;;13.92;79.08;100918.13;217466;1256;140710;-68
2023/09/04 05:17:02;;;;;;;8.60;4.30;;;;;;;13.99;79.65;100920.55;218216;1257;142538;-71
2023/09/04 05:22:05;;;;;;;6.50;3.80;;;;;;;14.13;80.02;100928.45;218562;1256;140346;-70
2023/09/04 05:27:08;;;;;;;6.90;3.50;;;;;;;14.26;79.92;100929.60;218022;1260;140432;-72
2023/09/04 05:32:11;;;;;;;4.40;3.40;;;;;;;14.34;79.73;100931.33;219508;1256;140413;-71
2023/09/04 05:37:14;;;;;;;6.50;3.60;;;;;;;14.44;79.74;100942.56;218679;1256;141624;-73
2023/09/04 05:42:18;;;;;;;4.90;4.30;;;;;;;14.60;79.76;100960.90;218498;1259;140417;-72
2023/09/04 05:47:21;;;;;;;5.70;3.90;;;;;;;14.82;79.70;100955.36;219453;1256;139944;-78
2023/09/04 05:52:24;;;;;;;3.50;3.20;;;;;;;15.04;79.69;100952.91;217788;1259;141864;-69
2023/09/04 05:57:27;;;;;;;5.10;3.60;;;;;;;15.23;79.31;100957.56;218759;1258;141612;-70
2023/09/04 06:02:31;;;;;;;5.50;3.80;;;;;;;15.51;79.06;100960.75;219632;1256;140407;-70
2023/09/04 06:07:35;;;;;;;3.80;3.10;;;;;;;15.83;78.84;100958.04;218346;1257;141309;-69
2023/09/04 06:12:38;;;;;;;4.30;3.90;;;;;;;16.23;78.62;100966.91;217683;1256;140312;-69
2023/09/04 06:17:41;;;;;;;8.60;3.90;;;;;;;16.61;78.31;100983.60;217927;1256;140935;-70
2023/09/04 06:22:45;;;;;;;5.50;3.90;;;;;;;16.75;77.37;100982.98;217544;1260;141325;-70
2023/09/04 06:27:49;;;;;;;4.00;3.40;;;;;;;16.99;76.81;100982.98;218699;1256;140082;-73
2023/09/04 06:32:52;;;;;;;9.40;3.60;;;;;;;17.33;76.85;100980.50;217651;1257;139977;-69
2023/09/04 06:37:56;;;;;;;6.50;3.00;;;;;;;17.61;75.90;100983.56;219241;1258;141622;-75
2023/09/04 06:43:02;;;;;;;7.80;3.10;;;;;;;17.73;75.18;100975.21;218153;1259;141708;-69
2023/09/04 06:48:06;;;;;;;5.20;3.10;;;;;;;18.01;74.45;100975.85;218058;1257;140222;-72
2023/09/04 06:53:09;;;;;;;10.70;3.40;;;;;;;18.30;73.88;100988.35;219070;1259;140313;-70
2023/09/04 06:58:12;;;;;;;2.70;2.50;;;;;;;18.65;73.18;100991.61;217551;1257;140951;-70
2023/09/04 07:03:16;;;;;;;3.60;3.20;;;;;;;18.98;72.65;101000.39;217876;1256;140177;-71
2023/09/04 07:08:20;;;;;;;5.70;3.00;;;;;;;19.33;71.74;101003.05;217623;1257;141300;-70
2023/09/04 07:13:22;;;;;;;7.20;3.00;;;;;;;19.66;71.46;101002.82;217963;1257;140319;-69
2023/09/04 07:18:26;;;;;;;6.60;3.50;;;;;;;19.71;70.45;101003.27;218359;1256;140375;-71
2023/09/04 07:23:31;;;;;;;2.70;2.20;;;;;;;19.64;69.93;101015.41;218920;1257;139853;-71
2023/09/04 07:28:36;;;;;;;12.30;3.00;;;;;;;19.50;69.17;101027.56;217577;1258;142179;-70
2023/09/04 07:33:41;;;;;;;5.80;3.40;;;;;;;19.40;68.94;101025.69;217430;1257;140313;-71
2023/09/04 07:38:46;;;;;;;5.30;2.50;;;;;;;19.34;68.90;101036.03;218840;1256;141302;-72
2023/09/04 07:43:53;;;;;;;7.70;2.70;;;;;;;19.32;69.14;101049.98;219217;1257;140910;-70
2023/09/04 07:48:58;;;;;;;3.00;2.50;;;;;;;19.31;68.64;101042.83;220235;1259;140567;-72
2023/09/04 07:54:03;;;;;;;13.10;2.90;;;;;;;19.32;68.39;101040.08;219110;1257;140468;-71
2023/09/04 07:59:07;;;;;;;4.70;1.90;;;;;;;19.57;68.62;101043.11;218817;1256;141280;-69
2023/09/04 08:04:12;;;;;;;7.30;2.70;;;;;;;20.18;68.72;101037.69;219147;1256;140366;-69
2023/09/04 08:09:15;;;;;;;2.60;2.10;;;;;;;20.93;67.59;101039.05;217567;1258;140465;-68
2023/09/04 08:14:18;;;;;;;8.60;2.70;;;;;;;21.48;66.63;101039.55;218586;1257;141251;-71
2023/09/04 08:19:25;;;;;;;4.50;2.50;;;;;;;21.83;65.03;101034.92;218682;1256;140456;-69
2023/09/04 08:24:29;;;;;;;5.00;1.60;;;;;;;22.34;65.21;101036.09;218303;1257;139703;-69
2023/09/04 08:29:34;;;;;;;7.30;2.60;;;;;;;22.25;63.38;101037.52;218043;1256;139335;-72
2023/09/04 08:34:38;;;;;;;5.90;2.70;;;;;;;22.23;63.07;101035.52;217732;1260;139328;-71
2023/09/04 08:39:41;;;;;;;3.90;2.20;;;;;;;22.25;62.93;101032.69;218522;1260;141395;-71
2023/09/04 08:44:47;;;;;;;5.30;2.70;;;;;;;22.50;63.22;101033.05;217783;1257;139944;-70
2023/09/04 08:49:57;;;;;;;10.00;2.60;;;;;;;22.95;62.53;101037.95;217923;1257;140009;-69
2023/09/04 08:55:02;;;;;;;3.60;2.50;;;;;;;22.98;60.72;101044.50;217868;1257;140133;-68
2023/09/04 09:00:06;;;;;;;6.10;2.10;;;;;;;22.75;60.24;101043.80;218172;1257;139770;-69
2023/09/04 09:05:17;;;;;;;5.60;2.40;;;;;;;22.65;60.21;101038.86;217840;1257;140739;-69
2023/09/04 09:10:22;;;;;;;4.50;1.60;;;;;;;22.86;60.54;101036.84;217996;1257;139791;-69
2023/09/04 09:15:33;;;;;;;6.00;3.10;;;;;;;22.57;59.68;101034.73;217802;1260;139681;-68
2023/09/04 09:20:42;;;;;;;4.50;2.30;;;;;;;22.56;59.92;101032.47;218585;1256;140200;-68
2023/09/04 09:25:54;;;;;;;4.80;2.40;;;;;;;23.06;60.15;101037.14;219042;1256;139598;-69
2023/09/04 09:30:59;;;;;;;3.10;2.40;;;;;;;23.38;59.18;101041.83;218652;1256;139365;-69
2023/09/04 09:36:03;;;;;;;4.70;2.20;;;;;;;23.19;58.15;101032.23;218592;1260;140192;-69
2023/09/04 09:41:05;;;;;;;19.00;4.20;;;;;;;23.01;58.34;101032.29;217815;1257;139387;-68
2023/09/04 09:46:08;;;;;;;8.00;2.40;;;;;;;23.31;58.50;101032.81;217689;1260;140578;-70
2023/09/04 09:51:12;;;;;;;7.30;2.60;;;;;;;23.68;57.98;101028.19;220329;1256;140011;-71
2023/09/04 09:56:18;;;;;;;4.40;2.60;;;;;;;23.89;57.50;101035.00;219308;1257;140073;-72
2023/09/04 10:01:21;;;;;;;;;;;;;;;23.95;56.90;101028.98;219843;1256;139957;-73
2023/09/04 10:06:33;;;;;;;3.80;1.90;;;;;;;23.47;56.33;101027.86;217930;1257;126267;-72
2023/09/04 10:11:43;;;;;;;6.60;2.20;;;;;;;23.12;56.29;101024.14;217942;1259;228850;-72
2023/09/04 10:16:53;;;;;;;3.50;2.10;;;;;;;23.31;56.38;101027.04;219528;1257;140549;-72
2023/09/04 10:22:04;;;;;;;2.30;2.00;;;;;;;23.75;56.09;101026.79;219269;1256;140712;-72
2023/09/04 10:27:09;;;;;;;4.00;1.70;;;;;;;24.11;55.49;101029.48;217782;1257;139516;-72
2023/09/04 10:32:13;;;;;;;2.00;1.70;;;;;;;24.28;54.43;101026.42;218045;1257;139550;-71
2023/09/04 10:37:16;;;;;;;6.00;2.40;;;;;;;24.26;53.90;101026.34;218672;1257;139515;-71
2023/09/04 10:42:23;;;;;;;4.60;2.00;;;;;;;24.49;54.06;101025.08;217939;1257;140617;-72
2023/09/04 10:47:27;;;;;;;4.20;2.40;;;;;;;24.60;53.63;101028.84;218462;1259;140198;-71
2023/09/04 10:52:43;;;;;;;4.60;2.80;;;;;;;24.26;53.23;101033.69;217053;1256;899624;-69
2023/09/04 10:58:07;;;;;;;6.00;2.70;;;;;;;23.73;52.89;101039.05;218343;1257;139626;-70
2023/09/04 11:03:23;;;;;;;5.90;1.80;;;;;;;23.20;53.04;101022.27;218227;1259;139798;-71
2023/09/04 11:08:33;;;;;;;3.40;2.10;;;;;;;23.19;53.13;101027.11;218154;1257;139344;-71
2023/09/04 11:13:38;;;;;;;5.80;2.30;;;;;;;23.59;53.04;101020.60;217703;1257;162137;-70
2023/09/04 11:18:43;;;;;;;3.20;2.30;;;;;;;23.72;52.86;101023.50;218059;1259;141157;-69
2023/09/04 11:23:46;;;;;;;8.00;2.90;;;;;;;23.49;52.66;101025.38;218420;1257;140155;-70
2023/09/04 11:28:50;;;;;;;5.80;2.50;;;;;;;23.57;52.89;101026.00;218067;1256;139183;-69
2023/09/04 11:33:54;;;;;;;4.40;1.60;;;;;;;23.95;52.57;101019.18;219040;1260;140442;-74
2023/09/04 11:39:15;;;;;;;5.50;2.50;;;;;;;24.28;51.84;101014.96;217966;1260;139478;-72
2023/09/04 11:44:21;;;;;;;3.70;2.20;;;;;;;24.77;51.92;101013.02;220236;1255;139485;-73
2023/09/04 11:49:24;;;;;;;3.30;2.60;;;;;;;25.00;51.69;101009.71;219872;1256;140063;-70
2023/09/04 11:54:35;;;;;;;7.00;2.90;;;;;;;25.03;50.99;101007.86;220049;1262;141404;-70
2023/09/04 11:59:42;;;;;;;4.90;2.50;;;;;;;25.05;50.29;101000.63;219560;1257;140354;-67
2023/09/04 12:04:50;;;;;;;4.80;2.90;;;;;;;25.23;50.70;101003.39;218670;1257;140038;-73
2023/09/04 12:09:56;;;;;;;4.70;2.60;;;;;;;25.49;50.18;100999.71;217697;1256;139411;-71
2023/09/04 12:15:03;;;;;;;7.50;2.50;;;;;;;25.49;49.42;100991.85;217925;1256;139437;-71
2023/09/04 12:20:09;;;;;;;4.80;2.40;;;;;;;25.53;49.44;100992.26;217618;1260;140050;-76
2023/09/04 12:25:14;;;;;;;2.10;1.90;;;;;;;25.53;49.02;100985.98;218600;1260;140279;-76
2023/09/04 12:30:24;;;;;;;4.20;3.20;;;;;;;25.14;48.83;100980.14;217976;1257;140973;-74
2023/09/04 12:35:32;;;;;;;5.80;2.30;;;;;;;24.78;48.26;100983.98;217980;1258;139930;-70
2023/09/04 12:40:43;;;;;;;2.60;1.70;;;;;;;24.45;47.80;100986.16;218770;1257;139854;-72
2023/09/04 12:45:53;;;;;;;4.80;2.30;;;;;;;24.41;47.72;100978.05;217866;1256;139587;-72
2023/09/04 12:50:57;;;;;;;3.90;1.90;;;;;;;24.57;47.63;100978.07;218531;1257;139681;-74
2023/09/04 12:56:03;;;;;;;11.70;2.30;;;;;;;24.70;47.95;100974.97;217783;1261;139569;-77
2023/09/04 13:01:10;;;;;;;10.20;2.30;;;;;;;24.91;48.37;100975.73;217573;1262;140911;-71
2023/09/04 13:06:14;;;;;;;3.20;1.70;;;;;;;25.11;48.35;100972.55;217851;1261;140727;-72
2023/09/04 13:11:18;;;;;;;3.90;1.90;;;;;;;25.20;48.26;100966.27;218629;1257;139908;-77
2023/09/04 13:16:23;;;;;;;4.70;1.80;;;;;;;25.21;48.12;100970.77;218612;1257;139419;-76
2023/09/04 13:21:25;;;;;;;9.00;2.40;;;;;;;25.28;47.97;100966.79;218155;1257;139366;-76
2023/09/04 13:26:32;;;;;;;3.10;2.00;;;;;;;25.38;48.10;100966.04;218851;1257;139881;-75
2023/09/04 13:31:34;;;;;;;4.40;2.20;;;;;;;25.42;47.67;100964.40;219082;1257;140156;-68
2023/09/04 13:36:37;;;;;;;2.80;1.80;;;;;;;25.45;47.76;100965.20;217584;1256;139324;-70
2023/09/04 13:41:40;;;;;;;26.10;3.20;;;;;;;25.52;47.60;100965.45;218111;1257;139645;-72
2023/09/04 13:46:43;;;;;;;2.10;1.40;;;;;;;25.48;47.43;100965.98;217717;1257;163390;-70
2023/09/04 13:51:47;;;;;;;3.10;1.80;;;;;;;25.40;47.05;100966.57;218516;1261;139574;-67
2023/09/04 13:56:50;;;;;;;1.70;1.50;;;;;;;25.20;46.92;100963.06;219323;1256;139749;-68
2023/09/04 14:01:53;;;;;;;2.70;1.70;;;;;;;25.04;46.89;100954.73;218501;1256;140329;-69
2023/09/04 14:06:56;;;;;;;4.40;1.40;;;;;;;24.95;47.34;100952.60;218176;1257;139171;-72
2023/09/04 14:12:00;;;;;;;4.10;2.40;;;;;;;24.92;47.00;100950.36;218047;1257;140113;-69
2023/09/04 14:17:05;;;;;;;3.40;2.10;;;;;;;24.78;47.21;100947.77;217574;1257;140220;-70
2023/09/04 14:22:07;;;;;;;5.40;1.50;;;;;;;24.67;47.38;100946.88;219007;1260;139646;-70
2023/09/04 14:27:09;;;;;;;2.70;1.40;;;;;;;24.62;47.45;100951.38;217900;1256;139764;-69
2023/09/04 14:32:13;;;;;;;7.20;2.30;;;;;;;24.63;47.76;100949.89;218620;1261;139432;-70
2023/09/04 14:37:17;;;;;;;11.60;1.80;;;;;;;24.67;47.85;100949.83;217651;1262;139824;-67
2023/09/04 14:42:21;;;;;;;9.80;3.20;;;;;;;24.66;47.63;100947.02;217640;1260;139737;-69
2023/09/04 14:47:25;;;;;;;3.00;1.90;;;;;;;24.59;47.78;100944.13;217901;1260;141330;-69
2023/09/04 14:52:27;;;;;;;2.70;1.80;;;;;;;24.60;47.71;100948.20;217622;1260;142670;-69
2023/09/04 14:57:31;;;;;;;2.20;1.80;;;;;;;24.54;48.13;100945.29;218034;1260;139388;-67
2023/09/04 15:02:34;;;;;;;2.40;1.70;;;;;;;24.24;48.16;100934.83;217736;1261;140071;-69
2023/09/04 15:07:42;;;;;;;3.30;1.80;;;;;;;23.78;48.27;100932.60;217492;1257;139994;-69
2023/09/04 15:12:45;;;;;;;3.70;2.30;;;;;;;23.39;48.59;100928.63;218095;1260;140493;-67
2023/09/04 15:17:49;;;;;;;5.70;2.10;;;;;;;23.11;49.00;100933.68;217600;1257;139131;-67
2023/09/04 15:22:53;;;;;;;7.30;2.40;;;;;;;22.87;49.43;100935.34;218075;1261;140444;-67
2023/09/04 15:27:56;;;;;;;2.10;1.90;;;;;;;22.65;49.75;100934.29;217542;1260;139247;-67
2023/09/04 15:32:59;;;;;;;3.40;2.30;;;;;;;22.48;50.91;100931.50;218637;1259;140392;-67
2023/09/04 15:38:06;;;;;;;29.00;13.50;;;;;;;22.33;51.95;100930.05;217930;1260;139588;-69
2023/09/04 15:43:09;;;;;;;5.50;3.20;;;;;;;22.21;52.68;100930.52;220230;1257;140349;-71
2023/09/04 15:48:14;;;;;;;5.00;1.80;;;;;;;22.07;52.93;100927.73;220287;1257;139892;-70
2023/09/04 15:53:18;;;;;;;4.20;2.50;;;;;;;21.99;53.66;100928.11;220347;1257;139042;-70
2023/09/04 15:58:25;;;;;;;2.90;1.80;;;;;;;21.91;53.18;100932.77;220066;1258;141763;-70
2023/09/04 16:03:30;;;;;;;1.80;1.30;;;;;;;21.82;52.69;100936.83;218539;1257;139499;-70
2023/09/04 16:08:32;;;;;;;2.50;1.90;;;;;;;21.80;52.97;100937.38;217485;1257;139066;-70
2023/09/04 16:13:36;;;;;;;3.60;1.70;;;;;;;21.78;53.32;100933.48;217810;1257;161928;-70
2023/09/04 16:18:40;;;;;;;1.90;1.80;;;;;;;21.74;53.67;100934.52;217823;1258;139673;-68
2023/09/04 16:23:43;;;;;;;2.10;1.90;;;;;;;21.70;54.11;100927.52;218486;1257;139073;-69
2023/09/04 16:28:47;;;;;;;3.80;1.70;;;;;;;21.58;54.71;100922.20;218026;1258;140522;-73
2023/09/04 16:33:57;;;;;;;6.30;2.20;;;;;;;21.41;55.24;100927.48;218380;1257;141474;-76
2023/09/04 16:39:06;;;;;;;9.20;2.00;;;;;;;21.24;55.64;100926.66;217774;1258;140421;-70
2023/09/04 16:44:08;;;;;;;3.70;1.80;;;;;;;21.05;55.80;100934.56;217726;1258;139198;-77
2023/09/04 16:49:12;;;;;;;6.80;2.60;;;;;;;20.81;55.96;100933.20;217891;1258;139498;-72
2023/09/04 16:54:17;;;;;;;3.10;1.70;;;;;;;20.60;56.51;100932.58;217795;1260;139354;-77
2023/09/04 16:59:22;;;;;;;16.70;2.90;;;;;;;20.36;57.13;100934.80;217950;1257;140436;-76
2023/09/04 17:04:29;;;;;;;4.90;2.20;;;;;;;20.09;57.74;100945.73;217716;1260;139863;-71
2023/09/04 17:09:32;;;;;;;2.10;1.50;;;;;;;19.84;58.40;100942.55;218108;1257;140115;-71
2023/09/04 17:14:36;;;;;;;5.90;2.30;;;;;;;19.60;59.03;100942.90;217862;1258;140344;-75
2023/09/04 17:19:40;;;;;;;3.70;2.10;;;;;;;19.38;59.57;100949.87;218020;1257;139850;-74
2023/09/04 17:24:44;;;;;;;2.00;1.80;;;;;;;19.13;60.04;100953.42;218384;1257;140296;-82
2023/09/04 17:29:46;;;;;;;3.40;2.00;;;;;;;18.91;60.57;100952.63;217673;1260;140285;-78
2023/09/04 17:34:49;;;;;;;4.80;2.00;;;;;;;18.67;60.96;100955.85;218557;1257;140119;-77
2023/09/04 17:39:52;;;;;;;2.50;2.30;;;;;;;18.31;61.48;100957.09;217847;1257;141105;-79
2023/09/04 17:44:58;;;;;;;7.30;1.90;;;;;;;18.09;62.26;100961.09;218528;1257;139986;-78
2023/09/04 17:50:01;;;;;;;3.40;1.90;;;;;;;17.96;62.83;100964.59;217616;1257;140190;-78
2023/09/04 17:55:05;;;;;;;4.30;2.60;;;;;;;17.78;63.10;100965.89;217475;1257;139938;-77
2023/09/04 18:00:08;;;;;;;2.50;2.20;;;;;;;17.42;63.25;100964.71;217939;1257;140562;-78
2023/09/04 18:05:11;;;;;;;4.90;2.70;;;;;;;17.06;63.98;100959.59;218060;1257;142010;-74
2023/09/04 18:10:14;;;;;;;4.40;2.70;;;;;;;16.79;64.69;100956.33;217680;1257;141005;-75
2023/09/04 18:15:21;;;;;;;6.80;3.50;;;;;;;16.60;65.32;100957.02;218209;1257;140428;-75
2023/09/04 18:20:26;;;;;;;6.90;3.60;;;;;;;16.52;66.08;100962.01;217581;1260;141407;-72
2023/09/04 18:25:30;;;;;;;6.50;3.20;;;;;;;16.38;66.16;100961.84;217835;1257;139787;-75
2023/09/04 18:30:44;;;;;;;23.20;10.50;;;;;;;16.29;66.68;100970.96;217596;1257;140423;-72
2023/09/04 18:35:49;;;;;;;20.80;6.60;;;;;;;16.07;66.96;100978.16;218539;1257;140557;-72
2023/09/04 18:40:54;;;;;;;5.60;3.90;;;;;;;15.83;67.37;100974.91;217980;1256;141398;-72
2023/09/04 18:46:04;;;;;;;8.90;4.20;;;;;;;15.60;67.91;100978.63;217657;1257;139976;-71
2023/09/04 18:51:10;;;;;;;25.60;9.10;;;;;;;15.41;68.49;100978.95;218593;1256;141389;-71
2023/09/04 18:56:18;;;;;;;47.90;13.70;;;;;;;15.23;69.01;100976.86;217478;1260;140896;-71
2023/09/04 19:01:29;;;;;;;73.00;27.00;;;;;;;15.13;69.54;100976.52;217892;1257;140995;-74
2023/09/04 19:06:38;;;;;;;46.50;18.10;;;;;;;15.07;69.81;100976.60;218052;1257;140699;-76
2023/09/04 19:11:42;;;;;;;33.40;12.50;;;;;;;15.01;70.12;100986.13;218117;1256;141025;-73
2023/09/04 19:16:45;;;;;;;25.70;10.20;;;;;;;15.01;70.46;100986.38;218299;1257;140314;-74
2023/09/04 19:21:49;;;;;;;30.50;12.00;;;;;;;14.93;70.37;100990.04;217706;1260;140381;-68
2023/09/04 19:26:58;;;;;;;18.80;6.70;;;;;;;14.71;70.49;100986.16;218507;1256;143865;-69
2023/09/04 19:32:02;;;;;;;13.50;5.00;;;;;;;14.48;70.78;100991.50;218044;1258;140495;-70
2023/09/04 19:37:05;;;;;;;3.80;3.30;;;;;;;14.41;71.40;101000.47;218165;1257;140113;-74
2023/09/04 19:42:07;;;;;;;21.20;8.70;;;;;;;14.31;71.60;100998.02;218437;1256;139857;-77
2023/09/04 19:47:11;;;;;;;17.60;8.10;;;;;;;14.19;71.86;101000.36;218061;1257;143217;-72
2023/09/04 19:52:13;;;;;;;20.20;6.80;;;;;;;14.03;72.04;101002.93;218361;1256;140699;-75
2023/09/04 19:57:19;;;;;;;38.00;14.10;;;;;;;13.84;72.46;101000.48;218758;1257;141636;-72
2023/09/04 20:02:22;;;;;;;28.10;11.20;;;;;;;13.74;72.95;101004.77;217820;1260;140615;-77
2023/09/04 20:07:26;;;;;;;26.90;10.50;;;;;;;13.76;73.29;101007.06;217801;1259;140643;-68
2023/09/04 20:12:29;;;;;;;21.50;8.70;;;;;;;13.80;73.23;101000.58;218039;1257;140214;-69
2023/09/04 20:17:34;;;;;;;29.60;10.90;;;;;;;13.71;73.53;101007.31;217785;1257;141208;-74
2023/09/04 20:22:37;;;;;;;32.40;15.80;;;;;;;13.66;73.37;101010.37;217446;1257;141006;-69
2023/09/04 20:27:42;;;;;;;23.50;11.00;;;;;;;13.62;73.50;101006.23;217500;1257;142027;-69
2023/09/04 20:32:44;;;;;;;24.70;11.10;;;;;;;13.46;73.62;101011.08;217689;1257;141740;-68
2023/09/04 20:37:48;;;;;;;18.80;8.50;;;;;;;13.29;73.91;101012.86;217648;1258;141707;-68
2023/09/04 20:42:50;;;;;;;12.50;4.80;;;;;;;13.11;73.99;101015.98;217444;1257;140024;-71
2023/09/04 20:47:53;;;;;;;13.10;4.90;;;;;;;12.99;74.61;101015.30;217466;1260;140629;-71
2023/09/04 20:52:56;;;;;;;5.40;4.30;;;;;;;12.89;75.02;101011.50;218130;1257;142778;-72
2023/09/04 20:58:00;;;;;;;7.80;4.60;;;;;;;12.83;75.29;101010.45;217443;1257;140165;-71
2023/09/04 21:03:04;;;;;;;5.40;4.60;;;;;;;12.79;75.32;101013.62;218416;1257;140299;-71
2023/09/04 23:22:06;;;;;;;5.00;3.60;;;;;;;11.09;78.69;101016.76;218505;1256;141155;-69
2023/09/04 23:27:15;;;;;;;4.70;3.80;;;;;;;11.05;78.99;101012.23;218752;1256;140897;-70
2023/09/04 23:32:25;;;;;;;4.60;4.20;;;;;;;11.03;79.10;101011.34;218019;1260;141221;-70
2023/09/04 23:37:31;;;;;;;6.70;3.60;;;;;;;11.00;79.13;101009.87;220310;1256;141067;-71
2023/09/04 23:47:57;;;;;;;18.80;4.60;;;;;;;11.00;79.63;101004.29;218911;1256;140902;-72
2023/09/04 23:53:01;;;;;;;7.90;4.50;;;;;;;11.05;79.45;100996.68;219885;1256;140965;-72
2023/09/04 23:58:05;;;;;;;6.40;4.60;;;;;;;11.09;79.68;100993.14;218654;1257;141034;-71
